sensor_id;sensor_type;location;lat;lon;timestamp;pressure;altitude;pressure_sealevel;temperature;humidity
59063;BME280;44851;45.648;9.004;2023-05-07T00:00:09;98972.22;;;20.69;48.64
59063;BME280;44851;45.648;9.004;2023-05-07T00:02:35;98967.97;;;20.68;48.35
59063;BME280;44851;45.648;9.004;2023-05-07T00:05:01;98962.84;;;20.80;48.21
59063;BME280;44851;45.648;9.004;2023-05-07T00:07:27;98967.72;;;20.76;48.27
59063;BME280;44851;45.648;9.004;2023-05-07T00:09:53;98960.81;;;20.75;47.83
59063;BME280;44851;45.648;9.004;2023-05-07T00:12:18;98968.16;;;20.73;46.98
59063;BME280;44851;45.648;9.004;2023-05-07T00:14:44;98975.50;;;20.78;47.10
59063;BME280;44851;45.648;9.004;2023-05-07T00:17:09;98976.09;;;20.73;46.48
59063;BME280;44851;45.648;9.004;2023-05-07T00:19:35;98969.78;;;20.74;46.90
59063;BME280;44851;45.648;9.004;2023-05-07T00:22:00;98979.78;;;20.72;47.17
59063;BME280;44851;45.648;9.004;2023-05-07T00:24:25;98977.94;;;20.53;45.39
59063;BME280;44851;45.648;9.004;2023-05-07T00:26:51;98981.19;;;20.68;45.68
59063;BME280;44851;45.648;9.004;2023-05-07T00:29:18;98978.94;;;20.79;46.17
59063;BME280;44851;45.648;9.004;2023-05-07T00:31:43;98982.22;;;20.61;44.95
59063;BME280;44851;45.648;9.004;2023-05-07T00:34:08;98987.31;;;20.56;44.28
59063;BME280;44851;45.648;9.004;2023-05-07T00:36:34;98983.03;;;20.68;45.20
59063;BME280;44851;45.648;9.004;2023-05-07T00:39:00;98987.31;;;20.69;45.35
59063;BME280;44851;45.648;9.004;2023-05-07T00:41:27;98986.50;;;20.62;44.73
59063;BME280;44851;45.648;9.004;2023-05-07T00:43:52;98987.28;;;20.75;45.36
59063;BME280;44851;45.648;9.004;2023-05-07T00:46:20;98986.50;;;20.68;44.64
59063;BME280;44851;45.648;9.004;2023-05-07T00:48:46;98996.66;;;20.71;45.31
59063;BME280;44851;45.648;9.004;2023-05-07T00:51:11;98997.50;;;20.65;45.85
59063;BME280;44851;45.648;9.004;2023-05-07T00:53:38;99001.38;;;20.63;47.17
59063;BME280;44851;45.648;9.004;2023-05-07T00:56:04;98999.75;;;20.42;47.96
59063;BME280;44851;45.648;9.004;2023-05-07T00:58:32;98999.72;;;20.55;48.12
59063;BME280;44851;45.648;9.004;2023-05-07T01:00:57;99007.69;;;20.48;48.45
59063;BME280;44851;45.648;9.004;2023-05-07T01:03:23;99014.53;;;20.30;48.28
59063;BME280;44851;45.648;9.004;2023-05-07T01:05:49;99021.06;;;20.34;49.16
59063;BME280;44851;45.648;9.004;2023-05-07T01:08:16;99034.97;;;20.42;49.17
59063;BME280;44851;45.648;9.004;2023-05-07T01:10:43;99045.72;;;20.34;49.09
59063;BME280;44851;45.648;9.004;2023-05-07T01:13:10;99066.28;;;20.32;48.54
59063;BME280;44851;45.648;9.004;2023-05-07T01:15:36;99067.91;;;20.27;48.67
59063;BME280;44851;45.648;9.004;2023-05-07T01:18:02;99060.53;;;20.09;49.57
59063;BME280;44851;45.648;9.004;2023-05-07T01:20:28;99063.69;;;19.84;50.11
59063;BME280;44851;45.648;9.004;2023-05-07T01:22:54;99058.97;;;19.73;50.07
59063;BME280;44851;45.648;9.004;2023-05-07T01:25:20;99055.16;;;19.82;50.75
59063;BME280;44851;45.648;9.004;2023-05-07T01:27:45;99061.19;;;19.69;50.11
59063;BME280;44851;45.648;9.004;2023-05-07T01:30:11;99056.22;;;19.53;50.49
59063;BME280;44851;45.648;9.004;2023-05-07T01:32:55;99061.94;;;19.57;50.76
59063;BME280;44851;45.648;9.004;2023-05-07T01:35:26;99067.91;;;19.37;53.18
59063;BME280;44851;45.648;9.004;2023-05-07T01:37:54;99065.47;;;19.70;54.16
59063;BME280;44851;45.648;9.004;2023-05-07T01:40:20;99066.56;;;19.83;56.47
59063;BME280;44851;45.648;9.004;2023-05-07T01:42:46;99051.47;;;19.77;57.91
59063;BME280;44851;45.648;9.004;2023-05-07T01:45:13;99033.72;;;19.70;60.99
59063;BME280;44851;45.648;9.004;2023-05-07T01:47:39;99018.00;;;19.21;61.49
59063;BME280;44851;45.648;9.004;2023-05-07T01:50:07;99019.34;;;18.11;62.21
59063;BME280;44851;45.648;9.004;2023-05-07T01:52:34;99020.75;;;18.29;64.18
59063;BME280;44851;45.648;9.004;2023-05-07T01:55:00;99031.84;;;18.46;64.56
59063;BME280;44851;45.648;9.004;2023-05-07T01:57:25;99038.31;;;18.43;65.01
59063;BME280;44851;45.648;9.004;2023-05-07T01:59:50;99032.16;;;18.36;65.02
59063;BME280;44851;45.648;9.004;2023-05-07T02:02:16;99029.75;;;17.98;65.28
59063;BME280;44851;45.648;9.004;2023-05-07T02:04:41;99023.41;;;17.78;66.05
59063;BME280;44851;45.648;9.004;2023-05-07T02:07:06;99010.72;;;17.52;66.71
59063;BME280;44851;45.648;9.004;2023-05-07T02:09:32;99001.41;;;16.82;68.33
59063;BME280;44851;45.648;9.004;2023-05-07T02:11:57;98999.00;;;17.10;69.15
59063;BME280;44851;45.648;9.004;2023-05-07T02:14:22;99005.41;;;16.78;69.50
59063;BME280;44851;45.648;9.004;2023-05-07T02:16:48;99006.25;;;17.08;70.38
59063;BME280;44851;45.648;9.004;2023-05-07T02:19:13;99018.56;;;17.16;70.33
59063;BME280;44851;45.648;9.004;2023-05-07T02:21:38;99004.88;;;16.97;69.47
59063;BME280;44851;45.648;9.004;2023-05-07T02:24:04;98998.13;;;17.18;69.73
59063;BME280;44851;45.648;9.004;2023-05-07T02:26:30;99019.81;;;17.49;69.80
59063;BME280;44851;45.648;9.004;2023-05-07T02:28:55;99025.84;;;17.43;69.38
59063;BME280;44851;45.648;9.004;2023-05-07T02:31:21;99031.44;;;17.40;69.03
59063;BME280;44851;45.648;9.004;2023-05-07T02:33:46;99040.31;;;17.69;69.45
59063;BME280;44851;45.648;9.004;2023-05-07T02:36:11;99042.41;;;17.73;69.64
59063;BME280;44851;45.648;9.004;2023-05-07T02:38:38;99036.59;;;17.78;68.70
59063;BME280;44851;45.648;9.004;2023-05-07T02:41:04;99043.63;;;17.56;68.47
59063;BME280;44851;45.648;9.004;2023-05-07T02:43:29;99034.53;;;17.58;68.72
59063;BME280;44851;45.648;9.004;2023-05-07T02:46:04;99033.81;;;17.35;68.65
59063;BME280;44851;45.648;9.004;2023-05-07T02:48:31;99027.19;;;17.39;69.03
59063;BME280;44851;45.648;9.004;2023-05-07T02:50:57;99016.63;;;17.09;69.26
59063;BME280;44851;45.648;9.004;2023-05-07T02:53:22;99016.16;;;16.91;71.27
59063;BME280;44851;45.648;9.004;2023-05-07T02:55:47;99018.97;;;17.04;71.36
59063;BME280;44851;45.648;9.004;2023-05-07T02:58:13;99026.78;;;16.98;71.09
59063;BME280;44851;45.648;9.004;2023-05-07T03:00:38;99042.00;;;17.10;70.14
59063;BME280;44851;45.648;9.004;2023-05-07T03:03:03;99051.22;;;17.06;69.94
59063;BME280;44851;45.648;9.004;2023-05-07T03:05:29;99064.56;;;17.05;70.29
59063;BME280;44851;45.648;9.004;2023-05-07T03:07:54;99068.47;;;16.94;71.22
59063;BME280;44851;45.648;9.004;2023-05-07T03:10:19;99061.53;;;16.93;71.75
59063;BME280;44851;45.648;9.004;2023-05-07T03:12:45;99035.56;;;16.90;71.53
59063;BME280;44851;45.648;9.004;2023-05-07T03:15:10;99021.34;;;16.61;72.61
59063;BME280;44851;45.648;9.004;2023-05-07T03:17:39;99021.47;;;16.45;72.23
59063;BME280;44851;45.648;9.004;2023-05-07T03:20:05;99025.53;;;16.71;73.33
59063;BME280;44851;45.648;9.004;2023-05-07T03:22:31;99028.25;;;16.63;72.59
59063;BME280;44851;45.648;9.004;2023-05-07T03:24:56;99024.47;;;16.80;73.18
59063;BME280;44851;45.648;9.004;2023-05-07T03:27:21;99018.66;;;16.70;71.76
59063;BME280;44851;45.648;9.004;2023-05-07T03:29:47;99013.94;;;16.42;72.56
59063;BME280;44851;45.648;9.004;2023-05-07T03:32:12;99004.88;;;15.99;72.98
59063;BME280;44851;45.648;9.004;2023-05-07T03:34:38;99010.56;;;16.02;73.48
59063;BME280;44851;45.648;9.004;2023-05-07T03:37:03;99017.47;;;16.03;74.67
59063;BME280;44851;45.648;9.004;2023-05-07T03:39:28;99014.00;;;16.34;74.26
59063;BME280;44851;45.648;9.004;2023-05-07T03:41:54;99023.91;;;16.70;73.69
59063;BME280;44851;45.648;9.004;2023-05-07T03:44:19;99025.59;;;17.00;73.36
59063;BME280;44851;45.648;9.004;2023-05-07T03:46:45;99035.72;;;17.11;72.26
59063;BME280;44851;45.648;9.004;2023-05-07T03:49:10;99031.63;;;17.24;72.43
59063;BME280;44851;45.648;9.004;2023-05-07T03:51:35;99035.19;;;17.16;70.87
59063;BME280;44851;45.648;9.004;2023-05-07T03:54:01;99024.53;;;17.09;71.11
59063;BME280;44851;45.648;9.004;2023-05-07T03:56:26;99028.69;;;16.89;70.15
59063;BME280;44851;45.648;9.004;2023-05-07T03:58:53;99028.56;;;16.68;71.35
59063;BME280;44851;45.648;9.004;2023-05-07T04:01:18;99044.47;;;16.89;71.90
59063;BME280;44851;45.648;9.004;2023-05-07T04:03:44;99042.25;;;16.78;70.85
59063;BME280;44851;45.648;9.004;2023-05-07T04:06:09;99039.13;;;16.59;71.15
59063;BME280;44851;45.648;9.004;2023-05-07T04:08:34;99035.31;;;16.62;71.25
59063;BME280;44851;45.648;9.004;2023-05-07T04:11:00;99035.72;;;16.74;71.87
59063;BME280;44851;45.648;9.004;2023-05-07T04:13:25;99030.16;;;16.31;72.17
59063;BME280;44851;45.648;9.004;2023-05-07T04:15:51;99025.91;;;16.68;72.61
59063;BME280;44851;45.648;9.004;2023-05-07T04:18:17;99014.72;;;16.66;71.84
59063;BME280;44851;45.648;9.004;2023-05-07T04:20:42;99007.22;;;16.63;72.69
59063;BME280;44851;45.648;9.004;2023-05-07T04:23:08;99014.25;;;16.47;73.01
59063;BME280;44851;45.648;9.004;2023-05-07T04:25:33;99008.41;;;16.37;72.54
59063;BME280;44851;45.648;9.004;2023-05-07T04:27:59;98997.94;;;16.29;72.82
59063;BME280;44851;45.648;9.004;2023-05-07T04:30:24;99007.78;;;16.50;72.97
59063;BME280;44851;45.648;9.004;2023-05-07T04:32:50;99011.84;;;16.75;73.58
59063;BME280;44851;45.648;9.004;2023-05-07T04:35:15;99004.06;;;16.82;72.61
59063;BME280;44851;45.648;9.004;2023-05-07T04:37:41;99012.03;;;16.74;70.96
59063;BME280;44851;45.648;9.004;2023-05-07T04:40:06;99008.63;;;16.50;71.14
59063;BME280;44851;45.648;9.004;2023-05-07T04:42:32;99006.84;;;16.66;73.37
59063;BME280;44851;45.648;9.004;2023-05-07T04:44:58;99019.22;;;16.80;72.18
59063;BME280;44851;45.648;9.004;2023-05-07T04:47:23;99034.75;;;16.90;72.47
59063;BME280;44851;45.648;9.004;2023-05-07T04:49:48;99044.19;;;16.84;73.10
59063;BME280;44851;45.648;9.004;2023-05-07T04:52:14;99038.66;;;16.79;71.49
59063;BME280;44851;45.648;9.004;2023-05-07T04:54:40;99029.81;;;16.72;71.38
59063;BME280;44851;45.648;9.004;2023-05-07T04:57:05;99033.00;;;16.82;72.56
59063;BME280;44851;45.648;9.004;2023-05-07T04:59:32;99034.06;;;16.73;72.53
59063;BME280;44851;45.648;9.004;2023-05-07T05:01:57;99039.63;;;16.78;73.38
59063;BME280;44851;45.648;9.004;2023-05-07T05:04:22;99035.72;;;16.74;72.98
59063;BME280;44851;45.648;9.004;2023-05-07T05:06:48;99035.16;;;16.64;72.60
59063;BME280;44851;45.648;9.004;2023-05-07T05:09:13;99037.38;;;16.75;72.63
59063;BME280;44851;45.648;9.004;2023-05-07T05:11:39;99039.91;;;16.83;73.08
59063;BME280;44851;45.648;9.004;2023-05-07T05:14:05;99048.59;;;16.69;73.08
59063;BME280;44851;45.648;9.004;2023-05-07T05:16:30;99057.38;;;16.84;73.12
59063;BME280;44851;45.648;9.004;2023-05-07T05:18:55;99064.81;;;16.95;71.84
59063;BME280;44851;45.648;9.004;2023-05-07T05:21:21;99066.19;;;17.06;71.91
59063;BME280;44851;45.648;9.004;2023-05-07T05:23:46;99065.09;;;17.00;71.00
59063;BME280;44851;45.648;9.004;2023-05-07T05:26:12;99065.00;;;17.08;71.62
59063;BME280;44851;45.648;9.004;2023-05-07T05:28:37;99062.97;;;17.19;72.23
59063;BME280;44851;45.648;9.004;2023-05-07T05:31:03;99059.59;;;17.25;71.69
59063;BME280;44851;45.648;9.004;2023-05-07T05:33:28;99058.72;;;17.18;71.00
59063;BME280;44851;45.648;9.004;2023-05-07T05:35:54;99054.72;;;17.22;71.97
59063;BME280;44851;45.648;9.004;2023-05-07T05:38:19;99045.91;;;17.29;72.02
59063;BME280;44851;45.648;9.004;2023-05-07T05:40:46;99041.81;;;17.27;71.83
59063;BME280;44851;45.648;9.004;2023-05-07T05:43:11;99028.53;;;17.35;72.36
59063;BME280;44851;45.648;9.004;2023-05-07T05:45:37;99008.28;;;17.21;71.76
59063;BME280;44851;45.648;9.004;2023-05-07T05:48:02;99004.75;;;17.13;71.91
59063;BME280;44851;45.648;9.004;2023-05-07T05:50:27;98997.84;;;17.12;71.74
59063;BME280;44851;45.648;9.004;2023-05-07T05:52:53;98997.41;;;17.24;71.68
59063;BME280;44851;45.648;9.004;2023-05-07T05:55:18;98998.41;;;17.23;71.86
59063;BME280;44851;45.648;9.004;2023-05-07T05:57:44;99002.66;;;17.24;72.09
59063;BME280;44851;45.648;9.004;2023-05-07T06:00:10;99017.09;;;17.28;71.77
59063;BME280;44851;45.648;9.004;2023-05-07T06:02:35;99018.28;;;17.25;71.17
59063;BME280;44851;45.648;9.004;2023-05-07T06:05:00;99014.09;;;17.31;71.76
59063;BME280;44851;45.648;9.004;2023-05-07T06:07:26;99029.63;;;17.26;71.41
59063;BME280;44851;45.648;9.004;2023-05-07T06:09:51;99031.44;;;17.40;72.09
59063;BME280;44851;45.648;9.004;2023-05-07T06:12:16;99019.28;;;17.39;71.38
59063;BME280;44851;45.648;9.004;2023-05-07T06:14:45;99016.47;;;17.26;71.66
59063;BME280;44851;45.648;9.004;2023-05-07T06:17:10;99024.09;;;17.21;70.74
59063;BME280;44851;45.648;9.004;2023-05-07T06:19:35;99020.66;;;17.35;71.17
59063;BME280;44851;45.648;9.004;2023-05-07T06:22:01;99030.19;;;17.36;72.26
59063;BME280;44851;45.648;9.004;2023-05-07T06:24:27;99032.19;;;17.34;71.83
59063;BME280;44851;45.648;9.004;2023-05-07T06:26:53;99035.91;;;17.39;71.35
59063;BME280;44851;45.648;9.004;2023-05-07T06:29:18;99035.44;;;17.36;71.09
59063;BME280;44851;45.648;9.004;2023-05-07T06:31:44;99030.72;;;17.46;71.57
59063;BME280;44851;45.648;9.004;2023-05-07T06:34:10;99034.53;;;17.58;71.80
59063;BME280;44851;45.648;9.004;2023-05-07T06:36:39;99033.47;;;17.53;71.37
59063;BME280;44851;45.648;9.004;2023-05-07T06:39:04;99027.88;;;17.62;69.72
59063;BME280;44851;45.648;9.004;2023-05-07T06:41:30;99025.94;;;17.86;70.21
59063;BME280;44851;45.648;9.004;2023-05-07T06:43:55;99025.81;;;18.09;68.46
59063;BME280;44851;45.648;9.004;2023-05-07T06:46:20;99027.19;;;18.26;68.16
59063;BME280;44851;45.648;9.004;2023-05-07T06:48:46;99025.38;;;18.48;68.61
59063;BME280;44851;45.648;9.004;2023-05-07T06:51:11;99025.97;;;18.72;69.02
59063;BME280;44851;45.648;9.004;2023-05-07T06:53:37;99025.69;;;18.81;68.57
59063;BME280;44851;45.648;9.004;2023-05-07T06:56:02;99025.78;;;18.94;67.99
59063;BME280;44851;45.648;9.004;2023-05-07T06:58:27;99013.94;;;19.18;68.02
59063;BME280;44851;45.648;9.004;2023-05-07T07:00:53;99020.78;;;19.41;66.71
59063;BME280;44851;45.648;9.004;2023-05-07T07:03:18;99019.06;;;19.61;65.21
59063;BME280;44851;45.648;9.004;2023-05-07T07:05:43;99019.16;;;19.88;67.20
59063;BME280;44851;45.648;9.004;2023-05-07T07:08:09;99018.13;;;19.82;65.98
59063;BME280;44851;45.648;9.004;2023-05-07T07:10:35;99019.16;;;19.88;66.39
59063;BME280;44851;45.648;9.004;2023-05-07T07:13:00;99013.69;;;19.96;65.89
59063;BME280;44851;45.648;9.004;2023-05-07T07:15:25;99024.91;;;19.98;65.49
59063;BME280;44851;45.648;9.004;2023-05-07T07:17:51;99026.34;;;20.14;65.90
59063;BME280;44851;45.648;9.004;2023-05-07T07:20:16;99029.66;;;20.36;68.53
59063;BME280;44851;45.648;9.004;2023-05-07T07:22:42;99022.94;;;20.40;66.72
59063;BME280;44851;45.648;9.004;2023-05-07T07:25:07;99029.88;;;20.47;66.16
59063;BME280;44851;45.648;9.004;2023-05-07T07:27:33;99040.69;;;20.72;67.16
59063;BME280;44851;45.648;9.004;2023-05-07T07:29:58;99037.41;;;20.70;66.49
59063;BME280;44851;45.648;9.004;2023-05-07T07:32:23;99037.66;;;20.62;66.09
59063;BME280;44851;45.648;9.004;2023-05-07T07:34:49;99034.16;;;20.42;64.61
59063;BME280;44851;45.648;9.004;2023-05-07T07:37:14;99037.03;;;20.47;66.03
59063;BME280;44851;45.648;9.004;2023-05-07T07:39:39;99044.34;;;20.71;67.34
59063;BME280;44851;45.648;9.004;2023-05-07T07:42:06;99042.53;;;20.85;64.40
59063;BME280;44851;45.648;9.004;2023-05-07T07:44:31;99034.97;;;21.02;67.67
59063;BME280;44851;45.648;9.004;2023-05-07T07:46:56;99032.69;;;21.32;68.75
59063;BME280;44851;45.648;9.004;2023-05-07T07:49:22;99035.31;;;21.39;65.54
59063;BME280;44851;45.648;9.004;2023-05-07T07:51:47;99037.31;;;21.50;65.19
59063;BME280;44851;45.648;9.004;2023-05-07T07:54:13;99038.66;;;21.72;64.54
59063;BME280;44851;45.648;9.004;2023-05-07T07:56:38;99043.78;;;21.67;60.30
59063;BME280;44851;45.648;9.004;2023-05-07T07:59:03;99047.94;;;21.50;59.64
59063;BME280;44851;45.648;9.004;2023-05-07T08:01:31;99045.50;;;21.48;62.55
59063;BME280;44851;45.648;9.004;2023-05-07T08:03:57;99050.78;;;21.55;64.45
59063;BME280;44851;45.648;9.004;2023-05-07T08:06:25;99045.34;;;21.37;60.72
59063;BME280;44851;45.648;9.004;2023-05-07T08:08:51;99057.38;;;21.19;60.11
59063;BME280;44851;45.648;9.004;2023-05-07T08:11:17;99057.38;;;21.06;59.00
59063;BME280;44851;45.648;9.004;2023-05-07T08:13:42;99061.06;;;21.05;64.30
59063;BME280;44851;45.648;9.004;2023-05-07T08:16:08;99055.97;;;20.90;65.05
59063;BME280;44851;45.648;9.004;2023-05-07T08:18:33;99055.16;;;20.76;62.66
59063;BME280;44851;45.648;9.004;2023-05-07T08:20:58;99055.34;;;20.82;64.49
59063;BME280;44851;45.648;9.004;2023-05-07T08:23:24;99054.13;;;20.64;62.62
59063;BME280;44851;45.648;9.004;2023-05-07T08:25:49;99057.19;;;20.68;63.22
59063;BME280;44851;45.648;9.004;2023-05-07T08:28:15;99057.00;;;20.69;61.95
59063;BME280;44851;45.648;9.004;2023-05-07T08:30:40;99060.44;;;20.76;63.56
59063;BME280;44851;45.648;9.004;2023-05-07T08:33:06;99057.78;;;20.76;62.45
59063;BME280;44851;45.648;9.004;2023-05-07T08:35:31;99051.28;;;20.86;61.98
59063;BME280;44851;45.648;9.004;2023-05-07T08:37:57;99059.81;;;21.08;63.41
59063;BME280;44851;45.648;9.004;2023-05-07T08:40:26;99063.06;;;21.36;61.57
59063;BME280;44851;45.648;9.004;2023-05-07T08:42:53;99057.16;;;21.27;58.94
59063;BME280;44851;45.648;9.004;2023-05-07T08:45:19;99057.38;;;21.33;61.54
59063;BME280;44851;45.648;9.004;2023-05-07T08:47:58;99051.59;;;21.49;58.28
59063;BME280;44851;45.648;9.004;2023-05-07T08:50:23;99053.16;;;21.70;57.39
59063;BME280;44851;45.648;9.004;2023-05-07T08:52:49;99061.47;;;21.93;58.99
59063;BME280;44851;45.648;9.004;2023-05-07T08:55:15;99061.69;;;21.92;59.27
59063;BME280;44851;45.648;9.004;2023-05-07T08:57:40;99052.66;;;21.99;61.06
59063;BME280;44851;45.648;9.004;2023-05-07T09:00:06;99058.03;;;21.86;59.81
59063;BME280;44851;45.648;9.004;2023-05-07T09:02:33;99058.44;;;21.90;58.75
59063;BME280;44851;45.648;9.004;2023-05-07T09:04:59;99055.56;;;21.85;58.81
59063;BME280;44851;45.648;9.004;2023-05-07T09:07:25;99059.66;;;21.80;55.93
59063;BME280;44851;45.648;9.004;2023-05-07T09:09:51;99054.38;;;21.67;57.43
59063;BME280;44851;45.648;9.004;2023-05-07T09:12:18;99057.00;;;21.80;58.52
59063;BME280;44851;45.648;9.004;2023-05-07T09:14:44;99052.91;;;21.78;58.20
59063;BME280;44851;45.648;9.004;2023-05-07T09:17:10;99056.38;;;21.78;58.79
59063;BME280;44851;45.648;9.004;2023-05-07T09:19:35;99055.97;;;21.81;61.65
59063;BME280;44851;45.648;9.004;2023-05-07T09:22:05;99056.81;;;21.75;58.19
59063;BME280;44851;45.648;9.004;2023-05-07T09:24:32;99051.44;;;22.02;62.54
59063;BME280;44851;45.648;9.004;2023-05-07T09:27:01;99048.56;;;22.03;60.56
59063;BME280;44851;45.648;9.004;2023-05-07T09:29:27;99044.50;;;22.01;59.72
59063;BME280;44851;45.648;9.004;2023-05-07T09:32:01;99044.28;;;22.02;61.13
59063;BME280;44851;45.648;9.004;2023-05-07T09:34:27;99052.63;;;22.06;61.05
59063;BME280;44851;45.648;9.004;2023-05-07T09:36:53;99047.50;;;22.04;59.68
59063;BME280;44851;45.648;9.004;2023-05-07T09:39:19;99053.03;;;22.03;58.83
59063;BME280;44851;45.648;9.004;2023-05-07T09:41:46;99045.66;;;22.12;59.23
59063;BME280;44851;45.648;9.004;2023-05-07T09:44:12;99040.38;;;22.05;55.60
59063;BME280;44851;45.648;9.004;2023-05-07T09:46:42;99040.66;;;22.28;58.44
59063;BME280;44851;45.648;9.004;2023-05-07T09:49:11;99039.50;;;22.43;59.61
59063;BME280;44851;45.648;9.004;2023-05-07T09:51:50;99035.34;;;22.53;59.87
59063;BME280;44851;45.648;9.004;2023-05-07T09:54:17;99034.31;;;22.61;58.67
59063;BME280;44851;45.648;9.004;2023-05-07T09:56:44;99038.34;;;22.70;58.76
59063;BME280;44851;45.648;9.004;2023-05-07T09:59:14;99029.75;;;22.68;58.62
59063;BME280;44851;45.648;9.004;2023-05-07T10:01:44;99038.22;;;22.83;57.13
59063;BME280;44851;45.648;9.004;2023-05-07T10:04:13;99036.69;;;22.94;55.21
59063;BME280;44851;45.648;9.004;2023-05-07T10:06:39;99038.47;;;23.00;52.76
59063;BME280;44851;45.648;9.004;2023-05-07T10:09:05;99037.53;;;23.13;54.45
59063;BME280;44851;45.648;9.004;2023-05-07T10:11:34;99033.19;;;23.19;53.27
59063;BME280;44851;45.648;9.004;2023-05-07T10:14:01;99029.34;;;23.33;53.80
59063;BME280;44851;45.648;9.004;2023-05-07T10:16:29;99026.56;;;23.46;52.90
59063;BME280;44851;45.648;9.004;2023-05-07T10:18:57;99024.69;;;23.65;54.04
59063;BME280;44851;45.648;9.004;2023-05-07T10:21:23;99026.19;;;23.91;54.20
59063;BME280;44851;45.648;9.004;2023-05-07T10:24:04;99023.97;;;24.06;53.29
59063;BME280;44851;45.648;9.004;2023-05-07T10:26:34;99025.28;;;24.16;52.91
59063;BME280;44851;45.648;9.004;2023-05-07T10:29:07;99021.59;;;24.28;53.37
59063;BME280;44851;45.648;9.004;2023-05-07T10:34:14;99026.13;;;24.39;49.54
59063;BME280;44851;45.648;9.004;2023-05-07T10:36:41;99023.06;;;24.66;48.05
59063;BME280;44851;45.648;9.004;2023-05-07T10:39:07;99018.78;;;24.65;45.32
59063;BME280;44851;45.648;9.004;2023-05-07T10:41:33;99014.88;;;24.79;49.85
59063;BME280;44851;45.648;9.004;2023-05-07T10:43:58;99016.28;;;24.94;48.65
59063;BME280;44851;45.648;9.004;2023-05-07T10:46:26;99018.91;;;24.82;43.38
59063;BME280;44851;45.648;9.004;2023-05-07T10:51:27;99020.44;;;24.89;47.57
59063;BME280;44851;45.648;9.004;2023-05-07T10:56:40;99015.09;;;25.13;46.03
59063;BME280;44851;45.648;9.004;2023-05-07T11:01:55;99001.19;;;25.11;43.36
59063;BME280;44851;45.648;9.004;2023-05-07T11:04:23;99007.34;;;25.23;45.41
59063;BME280;44851;45.648;9.004;2023-05-07T11:17:29;98995.91;;;25.91;42.57
59063;BME280;44851;45.648;9.004;2023-05-07T11:19:57;98989.19;;;25.77;40.57
59063;BME280;44851;45.648;9.004;2023-05-07T11:24:59;98985.13;;;25.86;42.57
59063;BME280;44851;45.648;9.004;2023-05-07T11:27:26;98976.31;;;25.86;41.20
59063;BME280;44851;45.648;9.004;2023-05-07T11:29:51;98979.22;;;25.84;41.84
59063;BME280;44851;45.648;9.004;2023-05-07T11:32:28;98974.91;;;25.83;41.61
59063;BME280;44851;45.648;9.004;2023-05-07T11:34:54;98981.88;;;25.73;43.87
59063;BME280;44851;45.648;9.004;2023-05-07T11:37:21;98976.47;;;25.96;46.01
59063;BME280;44851;45.648;9.004;2023-05-07T11:39:47;98979.47;;;25.71;40.41
59063;BME280;44851;45.648;9.004;2023-05-07T11:44:51;98978.31;;;25.67;43.00
59063;BME280;44851;45.648;9.004;2023-05-07T11:47:18;98971.88;;;25.80;41.88
59063;BME280;44851;45.648;9.004;2023-05-07T11:49:48;98965.66;;;25.74;41.34
59063;BME280;44851;45.648;9.004;2023-05-07T11:52:15;98966.53;;;25.80;44.55
59063;BME280;44851;45.648;9.004;2023-05-07T11:54:40;98970.44;;;25.60;43.54
59063;BME280;44851;45.648;9.004;2023-05-07T11:57:06;98971.00;;;25.62;45.47
59063;BME280;44851;45.648;9.004;2023-05-07T11:59:39;98960.69;;;25.66;44.47
59063;BME280;44851;45.648;9.004;2023-05-07T12:02:06;98975.44;;;25.68;43.66
59063;BME280;44851;45.648;9.004;2023-05-07T12:04:31;98965.13;;;25.60;41.86
59063;BME280;44851;45.648;9.004;2023-05-07T12:06:56;98967.78;;;25.60;42.41
59063;BME280;44851;45.648;9.004;2023-05-07T12:09:22;98967.63;;;25.67;43.22
59063;BME280;44851;45.648;9.004;2023-05-07T12:11:47;98959.53;;;25.33;41.87
59063;BME280;44851;45.648;9.004;2023-05-07T12:14:13;98959.97;;;25.42;42.79
59063;BME280;44851;45.648;9.004;2023-05-07T12:16:40;98946.56;;;25.54;41.07
59063;BME280;44851;45.648;9.004;2023-05-07T12:19:06;98947.09;;;25.67;42.21
59063;BME280;44851;45.648;9.004;2023-05-07T12:21:34;98950.34;;;25.69;40.82
59063;BME280;44851;45.648;9.004;2023-05-07T12:24:00;98951.97;;;25.70;41.19
59063;BME280;44851;45.648;9.004;2023-05-07T12:26:26;98943.84;;;25.65;42.35
59063;BME280;44851;45.648;9.004;2023-05-07T12:28:51;98955.28;;;25.49;41.68
59063;BME280;44851;45.648;9.004;2023-05-07T12:31:17;98956.66;;;25.23;41.51
59063;BME280;44851;45.648;9.004;2023-05-07T12:33:43;98949.69;;;25.10;41.64
59063;BME280;44851;45.648;9.004;2023-05-07T12:36:08;98949.56;;;25.17;41.30
59063;BME280;44851;45.648;9.004;2023-05-07T12:38:35;98947.94;;;25.16;41.41
59063;BME280;44851;45.648;9.004;2023-05-07T12:41:01;98953.06;;;25.06;39.94
59063;BME280;44851;45.648;9.004;2023-05-07T12:43:28;98954.91;;;25.05;41.58
59063;BME280;44851;45.648;9.004;2023-05-07T12:45:56;98950.03;;;25.02;40.87
59063;BME280;44851;45.648;9.004;2023-05-07T12:48:23;98955.94;;;25.16;42.24
59063;BME280;44851;45.648;9.004;2023-05-07T12:50:54;98959.81;;;25.20;43.70
59063;BME280;44851;45.648;9.004;2023-05-07T12:53:22;98951.94;;;24.90;41.99
59063;BME280;44851;45.648;9.004;2023-05-07T12:55:50;98957.50;;;24.88;41.76
59063;BME280;44851;45.648;9.004;2023-05-07T13:00:42;98946.00;;;25.00;43.61
59063;BME280;44851;45.648;9.004;2023-05-07T13:03:09;98952.56;;;25.32;43.85
59063;BME280;44851;45.648;9.004;2023-05-07T13:05:34;98940.22;;;25.43;42.90
59063;BME280;44851;45.648;9.004;2023-05-07T13:08:00;98951.41;;;25.57;41.32
59063;BME280;44851;45.648;9.004;2023-05-07T13:10:26;98929.56;;;26.00;43.42
59063;BME280;44851;45.648;9.004;2023-05-07T13:12:51;98926.63;;;26.02;40.18
59063;BME280;44851;45.648;9.004;2023-05-07T13:15:17;98930.69;;;26.21;40.10
59063;BME280;44851;45.648;9.004;2023-05-07T13:17:43;98921.13;;;26.25;39.99
59063;BME280;44851;45.648;9.004;2023-05-07T13:20:10;98921.47;;;26.45;38.36
59063;BME280;44851;45.648;9.004;2023-05-07T13:22:36;98923.13;;;26.68;38.87